Time;durP1;ratioP1;P1;durP2;ratioP2;P2;SDS_P1;SDS_P2;PMS_P1;PMS_P2;Temp;Humidity;BMP_temperature;BMP_pressure;BME280_temperature;BME280_humidity;BME280_pressure;Samples;Min_cycle;Max_cycle;Signal;HPM_P1;HPM_P2
2024/01/06 00:01:21;;;;;;;7.35;5.82;;;;;;;4.94;100.00;100412.78;5157595;27;20043;-83
2024/01/06 00:03:47;;;;;;;5.88;5.28;;;;;;;4.91;100.00;100408.31;5154122;27;20039;-83
2024/01/06 00:06:14;;;;;;;6.93;6.07;;;;;;;4.90;100.00;100412.84;5158852;27;20130;-83
2024/01/06 00:08:41;;;;;;;6.10;5.50;;;;;;;4.88;100.00;100415.16;5158337;27;20043;-83
2024/01/06 00:11:08;;;;;;;7.50;5.65;;;;;;;4.86;100.00;100421.97;5156585;27;20513;-83
2024/01/06 00:13:35;;;;;;;5.57;5.03;;;;;;;4.86;100.00;100432.53;5157878;27;20085;-83
2024/01/06 00:16:01;;;;;;;6.53;5.80;;;;;;;4.84;100.00;100425.03;5157709;27;20039;-83
2024/01/06 00:18:28;;;;;;;5.88;5.28;;;;;;;4.84;100.00;100434.84;5138796;27;20066;-83
2024/01/06 00:20:56;;;;;;;5.95;5.28;;;;;;;4.81;100.00;100440.91;5154568;27;20047;-83
2024/01/06 00:23:23;;;;;;;7.45;5.93;;;;;;;4.77;100.00;100443.66;5156406;27;20123;-83
2024/01/06 00:25:49;;;;;;;6.13;5.47;;;;;;;4.75;100.00;100445.22;5156503;27;20062;-83
2024/01/06 00:28:16;;;;;;;5.53;5.03;;;;;;;4.72;100.00;100457.31;5159313;27;20131;-83
2024/01/06 00:30:42;;;;;;;7.45;5.43;;;;;;;4.71;100.00;100450.53;5158113;27;20039;-83
2024/01/06 00:33:09;;;;;;;5.78;5.22;;;;;;;4.66;100.00;100456.28;5159483;27;20031;-83
2024/01/06 00:35:36;;;;;;;4.20;3.80;;;;;;;4.62;100.00;100452.97;5158584;27;20490;-83
2024/01/06 00:38:03;;;;;;;5.20;4.50;;;;;;;4.59;100.00;100456.41;5159033;27;20810;-83
2024/01/06 00:40:30;;;;;;;6.53;4.50;;;;;;;4.57;100.00;100450.81;5138990;27;20044;-83
2024/01/06 00:42:56;;;;;;;4.97;4.50;;;;;;;4.52;100.00;100453.91;5157941;27;20082;-83
2024/01/06 00:45:23;;;;;;;4.60;4.20;;;;;;;4.51;100.00;100463.69;5157763;27;20047;-84
2024/01/06 00:47:50;;;;;;;6.82;5.30;;;;;;;4.47;100.00;100464.91;5159243;27;20043;-83
2024/01/06 00:50:19;;;;;;;6.00;5.18;;;;;;;4.46;100.00;100471.31;5157757;27;20048;-83
2024/01/06 00:52:46;;;;;;;7.43;5.82;;;;;;;4.47;100.00;100462.28;5158000;27;20046;-83
2024/01/06 00:55:12;;;;;;;7.10;5.95;;;;;;;4.46;100.00;100455.50;5138811;27;20039;-84
2024/01/06 00:57:39;;;;;;;7.55;5.72;;;;;;;4.47;100.00;100459.63;5158451;27;20043;-84
2024/01/06 01:00:06;;;;;;;7.13;5.93;;;;;;;4.42;100.00;100455.56;5158648;27;20096;-83
2024/01/06 01:02:32;;;;;;;6.55;5.75;;;;;;;4.40;100.00;100471.03;5158291;27;20126;-83
2024/01/06 01:05:01;;;;;;;6.40;5.75;;;;;;;4.38;100.00;100470.72;5156361;27;20088;-85
2024/01/06 01:07:28;;;;;;;6.28;5.38;;;;;;;4.35;100.00;100467.00;5154832;27;20039;-84
2024/01/06 01:09:56;;;;;;;6.43;5.82;;;;;;;4.33;100.00;100469.31;5138442;27;20047;-84
2024/01/06 01:12:23;;;;;;;6.45;5.85;;;;;;;4.34;100.00;100480.59;5138583;27;20047;-84
2024/01/06 01:14:51;;;;;;;6.57;5.82;;;;;;;4.34;100.00;100485.84;5157793;27;20535;-84
2024/01/06 01:17:18;;;;;;;6.70;6.10;;;;;;;4.33;100.00;100481.72;5157868;27;20103;-84
2024/01/06 01:19:45;;;;;;;7.60;5.93;;;;;;;4.33;100.00;100492.28;5157515;27;20043;-84
2024/01/06 01:22:12;;;;;;;6.25;5.65;;;;;;;4.33;100.00;100500.91;5156593;27;20881;-84
2024/01/06 01:24:39;;;;;;;6.78;6.15;;;;;;;4.31;100.00;100507.75;5157140;27;20124;-84
2024/01/06 01:27:06;;;;;;;8.10;6.13;;;;;;;4.27;100.00;100510.44;5138375;27;20514;-85
2024/01/06 01:29:32;;;;;;;8.88;5.20;;;;;;;4.23;100.00;100503.72;5152024;27;20047;-85
2024/01/06 01:31:59;;;;;;;10.30;5.55;;;;;;;4.21;100.00;100514.66;5147160;27;20047;-84
2024/01/06 01:34:26;;;;;;;7.38;5.43;;;;;;;4.19;100.00;100522.22;5156482;27;20537;-84
2024/01/06 01:36:53;;;;;;;7.70;5.75;;;;;;;4.17;100.00;100513.97;5157224;27;20093;-84
2024/01/06 01:39:19;;;;;;;7.55;6.03;;;;;;;4.14;100.00;100516.66;5156518;27;20047;-83
2024/01/06 01:41:46;;;;;;;8.60;6.43;;;;;;;4.12;100.00;100532.13;5154786;27;20039;-83
2024/01/06 01:44:12;;;;;;;5.90;5.38;;;;;;;4.05;100.00;100538.25;5154596;27;20092;-84
2024/01/06 01:46:39;;;;;;;7.13;6.13;;;;;;;4.00;100.00;100546.59;5157251;27;20071;-83
2024/01/06 01:49:06;;;;;;;9.10;5.53;;;;;;;3.98;100.00;100538.38;5153285;27;20126;-83
2024/01/06 01:51:35;;;;;;;6.97;6.15;;;;;;;3.99;100.00;100550.41;5156243;27;20485;-83
2024/01/06 01:54:03;;;;;;;7.72;6.45;;;;;;;3.99;100.00;100550.41;5156944;27;20088;-83
2024/01/06 01:56:34;;;;;;;6.78;6.07;;;;;;;3.98;100.00;100548.91;5155174;27;20437;-83
2024/01/06 01:59:05;;;;;;;8.37;6.73;;;;;;;3.95;100.00;100549.69;5156956;27;20083;-83
2024/01/06 02:01:33;;;;;;;7.78;5.82;;;;;;;3.96;100.00;100556.44;5154913;27;20314;-83
2024/01/06 02:03:59;;;;;;;6.65;5.93;;;;;;;3.94;100.00;100562.13;5156177;27;20054;-83
2024/01/06 02:06:27;;;;;;;6.72;6.00;;;;;;;3.93;100.00;100562.50;5156757;27;20043;-83
2024/01/06 02:08:54;;;;;;;8.13;6.22;;;;;;;3.95;100.00;100563.59;5156407;27;20077;-83
2024/01/06 02:11:21;;;;;;;6.57;5.88;;;;;;;3.95;100.00;100568.88;5119874;27;20506;-83
2024/01/06 02:13:47;;;;;;;7.10;5.80;;;;;;;3.95;100.00;100571.50;5156723;27;20130;-83
2024/01/06 02:16:14;;;;;;;6.28;5.68;;;;;;;3.93;100.00;100571.16;5156111;27;20047;-83
2024/01/06 02:18:40;;;;;;;6.53;5.65;;;;;;;3.92;100.00;100577.56;5155712;27;20050;-83
2024/01/06 02:21:07;;;;;;;6.50;5.68;;;;;;;3.97;100.00;100576.38;5153277;27;20054;-83
2024/01/06 02:23:36;;;;;;;8.75;5.82;;;;;;;3.96;100.00;100580.16;5154302;27;20046;-83
2024/01/06 02:26:03;;;;;;;5.65;5.18;;;;;;;3.99;100.00;100579.38;5156012;27;20039;-83
2024/01/06 02:28:29;;;;;;;8.02;5.55;;;;;;;3.99;100.00;100579.38;5155013;27;20045;-83
2024/01/06 02:30:56;;;;;;;6.28;5.43;;;;;;;3.96;100.00;100578.28;5155291;27;20201;-83
2024/01/06 02:33:24;;;;;;;5.47;4.88;;;;;;;3.95;100.00;100581.31;5155284;27;20047;-84
2024/01/06 02:35:51;;;;;;;7.22;5.65;;;;;;;3.92;100.00;100584.72;5156267;27;20039;-84
2024/01/06 02:38:17;;;;;;;6.25;5.57;;;;;;;3.89;100.00;100588.16;5133934;27;20086;-84
2024/01/06 02:40:44;;;;;;;6.82;5.60;;;;;;;3.90;100.00;100597.53;5155643;27;20121;-84
2024/01/06 02:43:10;;;;;;;7.75;6.07;;;;;;;3.88;100.00;100608.47;5151768;27;20043;-83
2024/01/06 02:45:37;;;;;;;7.05;6.35;;;;;;;3.84;100.00;100594.59;5155612;27;20044;-83
2024/01/06 02:48:04;;;;;;;7.82;6.50;;;;;;;3.85;100.00;100611.91;5156164;27;20498;-83
2024/01/06 02:50:30;;;;;;;10.55;6.93;;;;;;;3.86;100.00;100610.75;5153137;27;20567;-84
2024/01/06 02:52:57;;;;;;;7.80;6.70;;;;;;;3.86;100.00;100610.75;5144352;27;20038;-84
2024/01/06 02:55:24;;;;;;;8.23;6.95;;;;;;;3.82;100.00;100614.56;5136293;27;20047;-84
2024/01/06 02:57:50;;;;;;;8.07;7.25;;;;;;;3.79;100.00;100612.72;5134383;27;20039;-83
2024/01/06 03:00:17;;;;;;;10.60;6.53;;;;;;;3.77;100.00;100615.00;5156205;27;20035;-83
2024/01/06 03:02:44;;;;;;;10.23;7.38;;;;;;;3.78;100.00;100613.88;5152225;27;20418;-83
2024/01/06 03:05:11;;;;;;;7.85;6.85;;;;;;;3.76;100.00;100616.16;5159958;27;20032;-83
2024/01/06 03:07:37;;;;;;;8.65;7.55;;;;;;;3.76;100.00;100621.41;5160427;27;20072;-83
2024/01/06 03:10:04;;;;;;;8.02;6.80;;;;;;;3.77;100.00;100620.28;5143999;27;20047;-83
2024/01/06 03:12:31;;;;;;;8.05;6.65;;;;;;;3.76;100.00;100616.16;5156745;27;20092;-83
2024/01/06 03:14:58;;;;;;;7.93;6.53;;;;;;;3.75;100.00;100619.91;5141875;27;20047;-83
2024/01/06 03:17:25;;;;;;;6.93;6.22;;;;;;;3.74;100.00;100634.22;5156004;27;20646;-83
2024/01/06 03:19:51;;;;;;;8.70;6.80;;;;;;;3.72;100.00;100623.34;5154695;27;20185;-83
2024/01/06 03:22:18;;;;;;;9.52;6.43;;;;;;;3.69;100.00;100636.16;5155021;27;20047;-83
2024/01/06 03:24:45;;;;;;;9.20;6.40;;;;;;;3.67;100.00;100643.69;5136693;27;20811;-83
2024/01/06 03:27:12;;;;;;;9.13;6.57;;;;;;;3.66;100.00;100636.19;5156000;27;20134;-83
2024/01/06 03:29:39;;;;;;;8.73;6.20;;;;;;;3.67;100.00;100645.59;5154739;27;20039;-83
2024/01/06 03:32:06;;;;;;;6.82;6.13;;;;;;;3.68;100.00;100647.06;5139887;27;20851;-83
2024/01/06 03:34:32;;;;;;;10.10;6.00;;;;;;;3.71;100.00;100656.06;5158436;27;20051;-83
2024/01/06 03:36:59;;;;;;;6.57;5.78;;;;;;;3.69;100.00;100657.22;5157501;27;20050;-83
2024/01/06 03:39:26;;;;;;;8.13;6.03;;;;;;;3.68;100.00;100668.88;5156469;27;20130;-83
2024/01/06 03:41:52;;;;;;;6.32;5.05;;;;;;;3.69;100.00;100669.63;5159870;27;20043;-83
2024/01/06 03:44:19;;;;;;;6.32;5.72;;;;;;;3.69;100.00;100672.25;5157780;27;20051;-83
2024/01/06 03:46:45;;;;;;;6.03;5.13;;;;;;;3.64;100.00;100683.97;5159212;27;20116;-83
2024/01/06 03:49:12;;;;;;;6.00;5.40;;;;;;;3.62;100.00;100677.59;5158479;27;20554;-83
2024/01/06 03:51:39;;;;;;;5.72;5.22;;;;;;;3.60;100.00;100690.41;5140728;27;20047;-83
2024/01/06 03:54:05;;;;;;;7.80;5.75;;;;;;;3.59;100.00;100702.09;5140116;27;20122;-83
2024/01/06 03:56:32;;;;;;;8.35;6.03;;;;;;;3.55;100.00;100680.34;5158268;27;20046;-83
2024/01/06 03:58:59;;;;;;;8.25;6.15;;;;;;;3.55;100.00;100688.22;5139366;27;20096;-84
2024/01/06 04:01:25;;;;;;;8.73;6.18;;;;;;;3.56;100.00;100695.00;5159372;27;20828;-83
2024/01/06 04:03:52;;;;;;;9.55;6.60;;;;;;;3.54;100.00;100700.66;5140890;27;20047;-83
2024/01/06 04:06:19;;;;;;;7.07;6.03;;;;;;;3.55;100.00;100706.66;5139467;27;20044;-83
2024/01/06 04:08:45;;;;;;;7.03;5.88;;;;;;;3.53;100.00;100704.41;5158015;27;20394;-83
2024/01/06 04:11:12;;;;;;;6.13;5.53;;;;;;;3.53;100.00;100714.19;5122751;27;20116;-83
2024/01/06 04:13:38;;;;;;;8.60;6.50;;;;;;;3.50;100.00;100710.47;5158534;27;20043;-83
2024/01/06 04:16:05;;;;;;;7.50;6.63;;;;;;;3.49;100.00;100708.97;5122854;27;20122;-83
2024/01/06 04:18:32;;;;;;;7.10;6.13;;;;;;;3.47;100.00;100705.97;5139115;27;20035;-83
2024/01/06 04:20:59;;;;;;;6.88;5.85;;;;;;;3.47;100.00;100705.97;5159558;27;20059;-83
2024/01/06 04:23:25;;;;;;;7.25;5.50;;;;;;;3.46;100.00;100704.47;5139293;27;20051;-84
2024/01/06 04:25:52;;;;;;;9.50;5.70;;;;;;;3.45;100.00;100710.88;5158939;27;20054;-83
2024/01/06 04:28:18;;;;;;;6.25;5.65;;;;;;;3.45;100.00;100710.88;5157878;27;20046;-83
2024/01/06 04:30:45;;;;;;;6.43;5.68;;;;;;;3.45;100.00;100710.13;5157500;27;20532;-83
2024/01/06 04:33:12;;;;;;;6.80;5.57;;;;;;;3.43;100.00;100709.78;5138551;27;20075;-83
2024/01/06 04:35:39;;;;;;;6.65;5.32;;;;;;;3.40;100.00;100711.31;5157534;27;20050;-83
2024/01/06 04:38:05;;;;;;;5.45;4.93;;;;;;;3.38;100.00;100712.81;5138846;27;20078;-83
2024/01/06 04:40:32;;;;;;;5.97;5.38;;;;;;;3.37;100.00;100714.72;5157265;27;20511;-83
2024/01/06 04:42:58;;;;;;;6.82;5.70;;;;;;;3.39;100.00;100719.59;5157186;27;20081;-83
2024/01/06 04:45:25;;;;;;;6.57;5.43;;;;;;;3.38;100.00;100726.72;5154439;27;20092;-83
2024/01/06 04:47:52;;;;;;;7.57;5.70;;;;;;;3.35;100.00;100728.25;5149105;27;20510;-84
2024/01/06 04:50:19;;;;;;;7.53;5.80;;;;;;;3.35;100.00;100730.16;5139535;27;20063;-84
2024/01/06 04:52:45;;;;;;;7.78;6.30;;;;;;;3.35;100.00;100730.88;5138258;27;20154;-83
2024/01/06 04:55:12;;;;;;;6.22;5.38;;;;;;;3.33;100.00;100732.41;5118403;27;20071;-83
2024/01/06 04:57:39;;;;;;;6.43;5.57;;;;;;;3.30;100.00;100736.56;5158204;27;20049;-83
2024/01/06 05:00:06;;;;;;;6.35;5.47;;;;;;;3.24;100.00;100740.75;5139612;27;20134;-83
2024/01/06 05:02:32;;;;;;;6.70;6.00;;;;;;;3.23;100.00;100738.50;5138528;27;20050;-84
2024/01/06 05:04:59;;;;;;;8.93;6.20;;;;;;;3.17;100.00;100743.47;5154002;27;20131;-84
2024/01/06 05:07:26;;;;;;;8.20;6.18;;;;;;;3.15;100.00;100756.25;5156919;27;20079;-84
2024/01/06 05:09:52;;;;;;;6.65;5.93;;;;;;;3.13;100.00;100749.88;5156755;27;20083;-84
2024/01/06 05:12:19;;;;;;;7.95;5.40;;;;;;;3.11;100.00;100752.16;5157701;27;20043;-84
2024/01/06 05:14:46;;;;;;;7.70;5.68;;;;;;;3.11;100.00;100758.16;5139648;27;20047;-84
2024/01/06 05:17:12;;;;;;;9.30;6.05;;;;;;;3.07;100.00;100761.94;5157287;27;20047;-84
2024/01/06 05:19:39;;;;;;;6.25;5.47;;;;;;;3.05;100.00;100762.34;5156200;27;20930;-84
2024/01/06 05:22:05;;;;;;;7.78;5.72;;;;;;;3.06;100.00;100766.47;5157315;27;20048;-83
2024/01/06 05:24:32;;;;;;;6.55;5.68;;;;;;;3.07;100.00;100764.59;5153166;27;20047;-83
2024/01/06 05:26:58;;;;;;;5.88;5.35;;;;;;;3.06;100.00;100770.97;5156049;27;20120;-83
2024/01/06 05:29:26;;;;;;;8.82;5.88;;;;;;;3.04;100.00;100779.25;5137354;27;20074;-83
2024/01/06 05:31:53;;;;;;;5.60;5.07;;;;;;;3.02;100.00;100784.16;5156913;27;20047;-83
2024/01/06 05:34:19;;;;;;;8.77;6.03;;;;;;;3.03;100.00;100787.53;5138896;27;20054;-83
2024/01/06 05:36:46;;;;;;;9.30;6.68;;;;;;;3.02;100.00;100784.16;5156438;27;20039;-83
2024/01/06 05:39:13;;;;;;;6.47;5.70;;;;;;;3.03;100.00;100790.16;5157430;27;20035;-83
2024/01/06 05:41:40;;;;;;;6.70;5.72;;;;;;;2.99;100.00;100796.19;5157889;27;20096;-83
2024/01/06 05:44:07;;;;;;;7.50;6.20;;;;;;;2.96;100.00;100783.81;5157490;27;20116;-83
2024/01/06 05:46:34;;;;;;;9.23;6.43;;;;;;;2.95;100.00;100798.09;5155077;27;20615;-83
2024/01/06 05:49:01;;;;;;;6.30;5.70;;;;;;;2.97;100.00;100811.59;5156918;27;20043;-83
2024/01/06 05:51:28;;;;;;;7.53;6.32;;;;;;;2.96;100.00;100802.22;5157144;27;20556;-83
2024/01/06 05:53:54;;;;;;;10.10;6.22;;;;;;;2.97;100.00;100808.22;5147010;27;20043;-83
2024/01/06 05:56:27;;;;;;;10.77;6.47;;;;;;;2.95;100.00;100805.97;5157263;27;20039;-83
2024/01/06 05:58:55;;;;;;;10.38;6.05;;;;;;;2.95;100.00;100807.84;5157443;27;20047;-83
2024/01/06 06:01:22;;;;;;;10.98;7.22;;;;;;;2.91;100.00;100812.38;5157124;27;20055;-83
2024/01/06 06:03:50;;;;;;;7.78;6.22;;;;;;;2.90;100.00;100814.28;5135933;27;20128;-83
2024/01/06 06:06:18;;;;;;;10.02;6.80;;;;;;;2.90;100.00;100821.41;5158746;27;20505;-84
2024/01/06 06:08:45;;;;;;;8.00;6.53;;;;;;;2.89;100.00;100823.28;5137797;27;20051;-83
2024/01/06 06:11:12;;;;;;;9.63;6.65;;;;;;;2.88;100.00;100826.31;5137922;27;20134;-83
2024/01/06 06:13:42;;;;;;;9.77;7.22;;;;;;;2.90;100.00;100832.69;5151698;27;20046;-84
2024/01/06 06:16:09;;;;;;;8.80;6.95;;;;;;;2.88;100.00;100823.66;5157273;27;20123;-83
2024/01/06 06:18:36;;;;;;;10.18;6.63;;;;;;;2.87;100.00;100841.31;5137290;27;20564;-83
2024/01/06 06:21:03;;;;;;;11.85;8.10;;;;;;;2.86;100.00;100839.84;5156737;27;20059;-83
2024/01/06 06:23:31;;;;;;;9.18;6.60;;;;;;;2.85;100.00;100848.84;5155492;27;20094;-83
2024/01/06 06:25:59;;;;;;;9.57;6.40;;;;;;;2.83;100.00;100858.25;5154865;27;20784;-83
2024/01/06 06:28:26;;;;;;;12.73;7.00;;;;;;;2.81;100.00;100852.63;5157970;27;20058;-85
2024/01/06 06:30:53;;;;;;;10.35;6.78;;;;;;;2.79;100.00;100857.53;5154767;27;20472;-84
2024/01/06 06:33:19;;;;;;;9.80;6.30;;;;;;;2.78;100.00;100862.06;5154750;27;20421;-84
2024/01/06 06:35:46;;;;;;;9.48;5.85;;;;;;;2.75;100.00;100864.69;5156335;27;20046;-82
2024/01/06 06:38:13;;;;;;;9.35;5.78;;;;;;;2.72;100.00;100870.72;5156144;27;20068;-82
2024/01/06 06:40:39;;;;;;;7.20;5.93;;;;;;;2.72;100.00;100879.34;5156196;27;20051;-83
2024/01/06 06:43:06;;;;;;;11.15;7.20;;;;;;;2.68;100.00;100887.25;5156644;27;20071;-83
2024/01/06 06:45:33;;;;;;;9.90;6.82;;;;;;;2.68;100.00;100889.88;5137843;27;20035;-83
2024/01/06 06:47:59;;;;;;;8.15;6.13;;;;;;;2.67;100.00;100888.38;5155952;27;20529;-83
2024/01/06 06:50:26;;;;;;;7.78;6.38;;;;;;;2.64;100.00;100897.03;5153716;27;20039;-83
2024/01/06 06:52:53;;;;;;;8.43;6.65;;;;;;;2.63;100.00;100895.53;5155861;27;20154;-83
2024/01/06 06:55:19;;;;;;;12.27;6.70;;;;;;;2.65;100.00;100898.53;5156413;27;20464;-83
2024/01/06 06:57:46;;;;;;;9.57;6.55;;;;;;;2.63;100.00;100907.91;5155679;27;20069;-83
2024/01/06 07:00:13;;;;;;;10.60;6.95;;;;;;;2.64;100.00;100909.41;5155895;27;20046;-83
2024/01/06 07:02:39;;;;;;;10.15;6.40;;;;;;;2.63;100.00;100921.81;5154481;27;20043;-83
2024/01/06 07:05:07;;;;;;;8.50;6.35;;;;;;;2.62;100.00;100927.44;5154764;27;20043;-84
2024/01/06 07:07:33;;;;;;;7.03;6.22;;;;;;;2.62;100.00;100920.31;5154945;27;20126;-82
2024/01/06 07:10:02;;;;;;;8.93;6.38;;;;;;;2.63;100.00;100923.69;5155615;27;20066;-82
2024/01/06 07:12:29;;;;;;;11.00;6.45;;;;;;;2.64;100.00;100925.94;5155723;27;20142;-82
2024/01/06 07:14:56;;;;;;;12.48;6.55;;;;;;;2.65;100.00;100937.94;5156267;27;20039;-82
2024/01/06 07:17:22;;;;;;;9.10;6.25;;;;;;;2.66;100.00;100943.97;5154761;27;20490;-82
2024/01/06 07:19:49;;;;;;;7.75;6.03;;;;;;;2.67;100.00;100932.31;5155638;27;20054;-83
2024/01/06 07:22:19;;;;;;;5.72;4.68;;;;;;;2.66;100.00;100949.22;5125256;27;20110;-82
2024/01/06 07:24:46;;;;;;;9.55;5.32;;;;;;;2.64;100.00;100951.47;5113909;27;20051;-82
2024/01/06 07:27:12;;;;;;;5.30;4.80;;;;;;;2.62;100.00;100956.34;5113785;28;20513;-82
2024/01/06 07:29:39;;;;;;;7.05;5.82;;;;;;;2.62;100.00;100956.34;5128956;27;20083;-83
2024/01/06 07:32:06;;;;;;;6.72;4.82;;;;;;;2.63;100.00;100955.22;5129108;27;20044;-83
2024/01/06 07:34:33;;;;;;;9.30;4.90;;;;;;;2.63;100.00;100949.97;5113761;27;20040;-82
2024/01/06 07:36:59;;;;;;;6.13;4.88;;;;;;;2.62;100.00;100957.09;5113784;27;20043;-83
2024/01/06 07:39:26;;;;;;;6.13;4.63;;;;;;;2.62;100.00;100956.34;5112594;27;20129;-83
2024/01/06 07:41:53;;;;;;;5.50;4.47;;;;;;;2.63;100.00;100974.38;5130259;27;20056;-82
2024/01/06 07:44:24;;;;;;;8.15;5.20;;;;;;;2.64;100.00;100967.25;5130329;27;20052;-86
2024/01/06 07:46:51;;;;;;;5.65;4.97;;;;;;;2.64;100.00;100975.88;5131214;27;20109;-81
2024/01/06 07:49:18;;;;;;;8.75;4.75;;;;;;;2.65;100.00;100980.00;5115041;27;20062;-82
2024/01/06 07:51:45;;;;;;;6.10;4.90;;;;;;;2.66;100.00;100993.91;5121235;27;20036;-83
2024/01/06 07:54:11;;;;;;;7.47;4.93;;;;;;;2.65;100.00;100992.41;5136885;27;20044;-83
2024/01/06 07:56:39;;;;;;;5.97;5.13;;;;;;;2.65;100.00;100997.66;5118625;28;20865;-77
2024/01/06 07:59:05;;;;;;;5.88;4.63;;;;;;;2.65;100.00;100995.03;5119162;27;20044;-82
2024/01/06 08:01:32;;;;;;;5.32;4.82;;;;;;;2.64;100.00;101002.16;5115017;27;20055;-81
2024/01/06 08:03:59;;;;;;;5.75;5.22;;;;;;;2.64;100.00;101006.69;5113138;27;20052;-83
2024/01/06 08:06:27;;;;;;;6.28;5.57;;;;;;;2.66;100.00;101001.78;5130418;27;20121;-80
2024/01/06 08:08:54;;;;;;;8.00;5.35;;;;;;;2.66;100.00;101020.19;5114701;27;20040;-82
2024/01/06 08:11:21;;;;;;;8.68;5.50;;;;;;;2.66;100.00;101012.31;5112813;27;20051;-82
2024/01/06 08:13:48;;;;;;;10.05;5.25;;;;;;;2.63;100.00;101018.31;5115094;28;20477;-81
2024/01/06 08:16:14;;;;;;;6.57;5.75;;;;;;;2.65;100.00;101021.31;5113676;28;20051;-82
2024/01/06 08:18:41;;;;;;;9.15;6.13;;;;;;;2.70;100.00;101030.72;5116720;28;20248;-81
2024/01/06 08:21:07;;;;;;;5.90;5.35;;;;;;;2.68;100.00;101029.19;5123012;27;20539;-80
2024/01/06 08:23:34;;;;;;;7.80;5.45;;;;;;;2.68;100.00;101021.31;5161230;27;20071;-82
2024/01/06 08:26:01;;;;;;;5.95;4.97;;;;;;;2.68;100.00;101028.44;5159767;27;20120;-82
2024/01/06 08:28:27;;;;;;;6.38;5.15;;;;;;;2.69;100.00;101032.59;5158758;27;20473;-82
2024/01/06 08:30:54;;;;;;;6.45;5.65;;;;;;;2.70;100.00;101031.47;5159037;27;20050;-82
2024/01/06 08:33:21;;;;;;;9.02;5.47;;;;;;;2.72;100.00;101039.72;5159677;27;20035;-81
2024/01/06 08:35:48;;;;;;;6.90;5.57;;;;;;;2.72;100.00;101039.72;5158596;27;20035;-81
2024/01/06 08:38:15;;;;;;;6.80;5.65;;;;;;;2.75;100.00;101049.47;5138945;27;20753;-81
2024/01/06 08:40:41;;;;;;;7.55;5.63;;;;;;;2.77;100.00;101049.84;5160262;27;20486;-78
2024/01/06 08:43:09;;;;;;;6.97;5.78;;;;;;;2.77;100.00;101059.63;5123276;27;20506;-81
2024/01/06 08:45:35;;;;;;;7.60;5.93;;;;;;;2.76;100.00;101056.25;5139120;27;20086;-79
2024/01/06 08:48:02;;;;;;;7.50;6.05;;;;;;;2.78;100.00;101064.50;5158870;27;20506;-79
2024/01/06 08:50:29;;;;;;;8.70;5.93;;;;;;;2.81;100.00;101071.59;5158710;27;20081;-81
2024/01/06 08:52:55;;;;;;;8.63;5.90;;;;;;;2.80;100.00;101079.91;5157059;27;20494;-83
2024/01/06 08:55:22;;;;;;;6.43;5.13;;;;;;;2.79;100.00;101086.28;5159182;27;21233;-82
2024/01/06 08:57:49;;;;;;;10.38;6.07;;;;;;;2.80;100.00;101087.78;5159209;27;20122;-77
2024/01/06 09:00:17;;;;;;;8.00;6.07;;;;;;;2.81;100.00;101092.63;5158190;27;20039;-79
2024/01/06 09:02:44;;;;;;;8.13;6.15;;;;;;;2.82;100.00;101096.03;5142687;27;20066;-79
2024/01/06 09:05:11;;;;;;;9.27;5.80;;;;;;;2.81;100.00;101103.16;5136340;27;20054;-78
2024/01/06 09:07:37;;;;;;;7.65;5.75;;;;;;;2.81;100.00;101105.03;5160088;27;20051;-81
2024/01/06 09:10:04;;;;;;;9.13;6.15;;;;;;;2.85;100.00;101108.41;5162058;27;20127;-81
2024/01/06 09:12:31;;;;;;;6.47;5.40;;;;;;;2.86;100.00;101110.66;5159606;27;20043;-81
2024/01/06 09:14:57;;;;;;;7.03;6.07;;;;;;;2.87;100.00;101112.19;5141333;27;20049;-81
2024/01/06 09:17:24;;;;;;;10.18;6.07;;;;;;;2.90;100.00;101119.31;5159693;27;20096;-81
2024/01/06 09:19:53;;;;;;;7.90;5.38;;;;;;;2.92;100.00;101116.31;5159899;27;20039;-82
2024/01/06 09:22:20;;;;;;;7.65;5.80;;;;;;;2.91;100.00;101123.44;5158778;27;20058;-81
2024/01/06 09:24:46;;;;;;;8.15;5.57;;;;;;;2.93;100.00;101131.72;5140182;27;20054;-80
2024/01/06 09:27:14;;;;;;;7.60;6.03;;;;;;;2.93;100.00;101128.31;5157137;27;20114;-79
2024/01/06 09:29:41;;;;;;;6.45;5.78;;;;;;;2.95;100.00;101141.84;5134507;27;20044;-85
2024/01/06 09:32:08;;;;;;;11.05;5.90;;;;;;;2.97;100.00;101142.22;5158376;27;20545;-79
2024/01/06 09:34:34;;;;;;;7.53;5.80;;;;;;;2.98;100.00;101146.38;5156582;27;20031;-77
2024/01/06 09:37:05;;;;;;;12.07;5.90;;;;;;;3.03;100.00;101151.25;5156066;27;20807;-75
2024/01/06 09:39:32;;;;;;;9.73;5.20;;;;;;;3.03;100.00;101153.88;5156375;27;20079;-75
2024/01/06 09:41:58;;;;;;;9.25;5.72;;;;;;;3.05;100.00;101153.50;5156290;27;20776;-75
2024/01/06 09:44:25;;;;;;;6.22;5.18;;;;;;;3.09;100.00;101157.63;5155515;27;20047;-75
2024/01/06 09:46:57;;;;;;;9.23;5.93;;;;;;;3.12;100.00;101158.75;5155794;27;20047;-77
2024/01/06 09:49:28;;;;;;;7.03;5.20;;;;;;;3.13;100.00;101168.16;5155951;27;20109;-76
2024/01/06 09:51:58;;;;;;;6.90;5.65;;;;;;;3.12;100.00;101169.28;5156898;27;20133;-76
2024/01/06 09:54:25;;;;;;;5.50;5.00;;;;;;;3.15;100.00;101168.53;5155834;27;20050;-76
2024/01/06 09:56:52;;;;;;;7.35;5.38;;;;;;;3.19;100.00;101169.28;5155805;27;20039;-76
2024/01/06 09:59:21;;;;;;;6.50;5.80;;;;;;;3.22;100.00;101173.75;5155270;27;20490;-78
2024/01/06 10:01:49;;;;;;;5.32;4.85;;;;;;;3.23;100.00;101175.25;5139028;27;20043;-79
2024/01/06 10:04:16;;;;;;;6.90;5.15;;;;;;;3.24;100.00;101176.75;5154141;27;20061;-80
2024/01/06 10:06:47;;;;;;;6.22;5.40;;;;;;;3.24;100.00;101185.41;5159185;27;20047;-81
2024/01/06 10:09:14;;;;;;;8.60;5.97;;;;;;;3.24;100.00;101187.28;5162597;27;20079;-81
2024/01/06 10:11:41;;;;;;;6.05;5.03;;;;;;;3.25;100.00;101189.53;5138940;27;20057;-82
2024/01/06 10:14:08;;;;;;;7.80;5.30;;;;;;;3.24;100.00;101190.66;5162101;27;20121;-80
2024/01/06 10:16:35;;;;;;;6.53;5.55;;;;;;;3.24;100.00;101188.03;5159417;27;20050;-81
2024/01/06 10:19:02;;;;;;;7.97;5.32;;;;;;;3.22;100.00;101207.97;5161998;27;20043;-81
2024/01/06 10:21:31;;;;;;;10.05;5.40;;;;;;;3.23;100.00;101207.59;5159513;27;20078;-83
2024/01/06 10:24:00;;;;;;;6.97;5.18;;;;;;;3.24;100.00;101210.97;5157465;27;20040;-82
2024/01/06 10:26:26;;;;;;;5.90;4.97;;;;;;;3.23;100.00;101220.75;5156915;27;20082;-78
2024/01/06 10:28:53;;;;;;;7.28;5.68;;;;;;;3.24;100.00;101214.34;5158015;27;20108;-80
2024/01/06 10:31:20;;;;;;;7.95;6.10;;;;;;;3.26;100.00;101225.25;5159695;27;20100;-80
2024/01/06 10:33:48;;;;;;;5.65;5.07;;;;;;;3.26;100.00;101220.00;5156338;27;20061;-80
2024/01/06 10:36:16;;;;;;;6.45;4.93;;;;;;;3.27;100.00;101228.63;5153147;27;20756;-79
2024/01/06 10:38:44;;;;;;;7.45;5.80;;;;;;;3.26;100.00;101229.75;5154391;27;20046;-80
2024/01/06 10:41:12;;;;;;;7.90;5.50;;;;;;;3.25;100.00;101223.00;5155219;27;20496;-80
2024/01/06 10:43:41;;;;;;;8.23;5.70;;;;;;;3.27;100.00;101234.66;5137470;27;20143;-80
2024/01/06 10:46:10;;;;;;;6.28;5.30;;;;;;;3.30;99.55;101230.53;5156245;27;20577;-80
2024/01/06 10:48:42;;;;;;;5.55;4.93;;;;;;;3.29;99.50;101237.66;5139291;27;20073;-80
2024/01/06 10:51:11;;;;;;;5.60;4.82;;;;;;;3.27;99.57;101237.28;5160076;27;20043;-81
2024/01/06 10:53:40;;;;;;;7.07;5.35;;;;;;;3.25;99.57;101233.53;5157877;27;20122;-80
2024/01/06 10:56:08;;;;;;;6.30;5.18;;;;;;;3.24;99.59;101237.28;5156367;27;20043;-80
2024/01/06 10:58:42;;;;;;;8.05;5.00;;;;;;;3.25;99.38;101236.16;5155731;27;20496;-79
2024/01/06 11:01:09;;;;;;;5.55;5.05;;;;;;;3.25;99.43;101238.78;5156242;27;20445;-80
2024/01/06 11:03:38;;;;;;;6.22;5.05;;;;;;;3.31;99.49;101253.06;5155382;27;20046;-79
2024/01/06 11:06:11;;;;;;;7.72;5.53;;;;;;;3.29;99.17;101242.16;5156551;27;20043;-81
2024/01/06 11:09:13;;;;;;;7.93;5.63;;;;;;;3.29;99.09;101242.94;5156779;27;20047;-81
2024/01/06 11:11:40;;;;;;;8.20;5.72;;;;;;;3.33;99.41;101241.03;5136265;27;20062;-83
2024/01/06 11:14:27;;;;;;;6.13;4.97;;;;;;;3.35;99.25;101256.47;5157036;27;20100;-83
2024/01/06 11:16:55;;;;;;;6.93;5.05;;;;;;;3.35;98.94;101261.72;5157104;27;20069;-80
2024/01/06 11:19:34;;;;;;;6.80;5.50;;;;;;;3.34;98.64;101249.69;5160124;27;20043;-78
2024/01/06 11:22:21;;;;;;;6.30;5.28;;;;;;;3.35;98.59;101257.22;5155248;27;20043;-82
2024/01/06 11:24:52;;;;;;;6.18;5.57;;;;;;;3.40;98.66;101257.97;5158389;27;20035;-77